createdAt,value
2022-10-29T00:00:58.870Z,8.70
2022-10-29T00:03:27.378Z,9.20
2022-10-29T00:06:00.599Z,8.38
2022-10-29T00:08:29.689Z,8.30
2022-10-29T00:11:06.263Z,8.75
2022-10-29T00:13:36.276Z,8.38
2022-10-29T00:16:07.571Z,8.70
2022-10-29T00:18:35.884Z,8.20
2022-10-29T00:21:05.571Z,8.50
2022-10-29T00:23:33.964Z,8.00
2022-10-29T00:26:03.054Z,8.73
2022-10-29T00:28:31.642Z,8.68
2022-10-29T00:31:04.015Z,8.00
2022-10-29T00:33:32.228Z,7.93
2022-10-29T00:36:02.111Z,7.95
2022-10-29T00:38:31.278Z,7.28
2022-10-29T00:40:59.535Z,8.85
2022-10-29T00:43:28.508Z,8.48
2022-10-29T00:46:01.137Z,8.60
2022-10-29T00:48:33.729Z,8.20
2022-10-29T00:51:03.574Z,8.13
2022-10-29T00:53:34.719Z,8.30
2022-10-29T00:56:03.396Z,8.82
2022-10-29T00:58:32.600Z,8.18
2022-10-29T01:01:02.627Z,8.05
2022-10-29T01:03:30.766Z,8.38
2022-10-29T01:05:59.695Z,8.35
2022-10-29T01:08:27.894Z,8.35
2022-10-29T01:11:04.098Z,8.15
2022-10-29T01:13:48.487Z,8.07
2022-10-29T01:16:32.858Z,7.65
2022-10-29T01:19:13.795Z,7.75
2022-10-29T01:24:38.031Z,7.85
2022-10-29T01:27:42.966Z,8.82
2022-10-29T01:30:17.714Z,8.30
2022-10-29T01:32:55.838Z,7.68
2022-10-29T01:35:30.901Z,7.93
2022-10-29T01:38:11.082Z,8.30
2022-10-29T01:40:46.982Z,7.57
2022-10-29T01:45:59.801Z,7.55
2022-10-29T01:48:34.027Z,7.22
2022-10-29T01:51:06.009Z,7.43
2022-10-29T01:53:37.348Z,7.75
2022-10-29T01:56:05.903Z,7.00
2022-10-29T01:58:36.854Z,8.48
2022-10-29T02:03:51.186Z,7.68
2022-10-29T02:06:30.976Z,7.07
2022-10-29T02:09:06.528Z,7.60
2022-10-29T02:11:44.030Z,7.72
2022-10-29T02:14:17.898Z,7.55
2022-10-29T02:16:46.414Z,7.45
2022-10-29T02:19:16.192Z,7.28
2022-10-29T02:21:45.218Z,6.82
2022-10-29T02:24:13.972Z,6.90
2022-10-29T02:26:42.124Z,8.00
2022-10-29T02:29:10.222Z,7.75
2022-10-29T02:31:38.560Z,7.32
2022-10-29T02:34:06.788Z,7.30
2022-10-29T02:36:36.385Z,8.13
2022-10-29T02:39:05.380Z,7.25
2022-10-29T02:41:33.707Z,6.88
2022-10-29T02:44:01.884Z,7.30
2022-10-29T02:46:30.332Z,6.95
2022-10-29T02:48:58.512Z,7.20
2022-10-29T02:51:26.630Z,7.40
2022-10-29T02:53:56.361Z,7.47
2022-10-29T02:56:24.516Z,6.55
2022-10-29T02:58:52.895Z,7.40
2022-10-29T03:01:21.074Z,7.47
2022-10-29T03:03:49.336Z,7.32
2022-10-29T03:06:19.121Z,6.53
2022-10-29T03:08:48.210Z,7.32
2022-10-29T03:11:17.862Z,6.30
2022-10-29T03:13:45.973Z,6.80
2022-10-29T03:16:14.167Z,6.80
2022-10-29T03:18:42.329Z,7.07
2022-10-29T03:21:10.730Z,6.55
2022-10-29T03:23:39.010Z,6.70
2022-10-29T03:26:07.200Z,6.43
2022-10-29T03:28:36.832Z,6.25
2022-10-29T03:31:05.209Z,7.10
2022-10-29T03:33:33.413Z,6.78
2022-10-29T03:36:02.806Z,6.70
2022-10-29T03:38:31.245Z,6.78
2022-10-29T03:40:59.552Z,7.07
2022-10-29T03:43:27.716Z,6.47
2022-10-29T03:45:58.430Z,6.80
2022-10-29T03:48:27.050Z,6.68
2022-10-29T03:50:56.654Z,6.88
2022-10-29T03:53:25.546Z,7.13
2022-10-29T03:55:54.052Z,6.60
2022-10-29T03:58:23.027Z,6.60
2022-10-29T04:01:00.478Z,6.97
2022-10-29T04:03:29.932Z,6.63
2022-10-29T04:05:58.480Z,6.55
2022-10-29T04:08:27.107Z,6.85
2022-10-29T04:10:55.632Z,6.65
2022-10-29T04:13:23.724Z,6.80
2022-10-29T04:15:55.980Z,6.47
2022-10-29T04:18:26.055Z,6.45
2022-10-29T04:29:19.337Z,6.38
2022-10-29T04:31:47.527Z,6.30
2022-10-29T04:34:17.318Z,6.78
2022-10-29T04:36:45.582Z,6.63
2022-10-29T04:39:14.378Z,6.60
2022-10-29T04:41:44.240Z,6.35
2022-10-29T04:44:12.384Z,6.38
2022-10-29T04:46:40.456Z,6.65
2022-10-29T04:49:08.693Z,6.93
2022-10-29T04:51:38.312Z,6.25
2022-10-29T04:54:06.547Z,6.38
2022-10-29T04:56:34.778Z,5.97
2022-10-29T04:59:03.090Z,6.38
2022-10-29T05:01:31.755Z,6.47
2022-10-29T05:04:00.347Z,6.25
2022-10-29T05:06:28.693Z,6.50
2022-10-29T05:08:58.184Z,6.57
2022-10-29T05:11:26.370Z,6.53
2022-10-29T05:13:54.574Z,6.55
2022-10-29T05:16:22.856Z,6.68
2022-10-29T05:18:51.133Z,6.45
2022-10-29T05:21:19.341Z,6.43
2022-10-29T05:23:47.396Z,6.15
2022-10-29T05:26:16.999Z,6.72
2022-10-29T05:28:45.261Z,6.55
2022-10-29T05:31:13.436Z,6.07
2022-10-29T05:33:41.606Z,6.00
2022-10-29T05:36:09.968Z,6.35
2022-10-29T05:38:38.088Z,7.70
2022-10-29T05:41:06.585Z,7.03
2022-10-29T05:43:36.229Z,7.13
2022-10-29T05:46:04.902Z,7.18
2022-10-29T05:48:33.052Z,7.55
2022-10-29T05:51:01.188Z,7.57
2022-10-29T05:53:29.429Z,8.60
2022-10-29T05:55:59.315Z,7.47
2022-10-29T05:58:27.484Z,7.45
2022-10-29T06:00:57.063Z,7.40
2022-10-29T06:03:25.163Z,7.43
2022-10-29T06:05:53.304Z,7.28
2022-10-29T06:08:21.460Z,6.45
2022-10-29T06:10:49.617Z,7.07
2022-10-29T06:13:19.592Z,7.40
2022-10-29T06:15:48.414Z,6.47
2022-10-29T06:18:18.055Z,5.85
2022-10-29T06:20:46.212Z,5.70
2022-10-29T06:23:14.351Z,6.53
2022-10-29T06:25:42.591Z,6.65
2022-10-29T06:28:15.181Z,5.97
2022-10-29T06:30:48.020Z,6.25
2022-10-29T06:33:18.623Z,5.78
2022-10-29T06:35:47.088Z,5.97
2022-10-29T06:38:15.747Z,6.60
2022-10-29T06:40:44.162Z,5.82
2022-10-29T06:43:13.599Z,5.85
2022-10-29T06:45:41.837Z,6.35
2022-10-29T06:48:10.666Z,6.03
2022-10-29T06:50:40.336Z,5.15
2022-10-29T07:40:30.660Z,5.95
2022-10-29T07:42:58.999Z,6.53
2022-10-29T07:45:27.575Z,6.25
2022-10-29T07:48:03.214Z,5.85
2022-10-29T07:50:32.569Z,6.00
2022-10-29T07:53:01.125Z,5.93
2022-10-29T07:55:31.036Z,6.63
2022-10-29T07:58:01.350Z,6.13
2022-10-29T08:00:29.781Z,6.20
2022-10-29T08:02:58.716Z,6.13
2022-10-29T08:05:28.651Z,5.38
